Main page
METAR-TAF:

METAR-TAF

Airports :

Rabat–Salé Airport

Rabat, Morocco

latitude: 34-03N, longitude: 006-46W, elevation: 84 m

Current weather observation

The report was made 23 minutes ago, at 20:30 UTC
Wind 9 kt from the Northeast
Temperature 16°C
Humidity 39%
Pressure 1016 hPa
Visibility 10 km or more
no clouds below 1500 m and no cumulonimbus

METAR: GMME 212030Z 05009KT CAVOK 16/02 Q1016 NOSIG

Time: 20:53 (20:53 UTC)

Forecast

The report was made 3 hours and 53 minutes ago, at 17:00 UTC
Forecast valid from 21 at 18 UTC to 22 at 24 UTC
Wind 14 kt from the East/Northeast with gusts up to 24 kt
Visibility: 8000 m

TAF: GMME 211700Z 2118/2224 07014G24KT 8000 NSC

Weather observations and forecasts of more than 4000 airports (METAR and TAF reports).

The available stations are represented by yellow and red dots on the map.

Hover mouse over dot to see the name of the station.

Then click to see weather observations and forecasts.

To change the map : click on the green buttons with a black cross to zoom in, on the green button with a dash to zoom out, or on the green arrows for adjacent maps.


METAR-TAF: